Time;durP1;ratioP1;P1;durP2;ratioP2;P2;SDS_P1;SDS_P2;PMS_P1;PMS_P2;Temp;Humidity;BMP_temperature;BMP_pressure;BME280_temperature;BME280_humidity;BME280_pressure;Samples;Min_cycle;Max_cycle;Signal;HPM_P1;HPM_P2
2022/03/17 00:00:28;;;;;;;2.80;2.13;;;20.30;47.80;;;;;;4978627;28;89579;-65
2022/03/17 00:02:56;;;;;;;3.43;2.67;;;20.30;47.80;;;;;;4993020;28;89257;-65
2022/03/17 00:05:24;;;;;;;4.53;3.13;;;20.20;47.70;;;;;;4998998;28;88402;-65
2022/03/17 00:07:52;;;;;;;5.13;2.43;;;20.20;47.70;;;;;;4998970;28;88387;-63
2022/03/17 00:10:22;;;;;;;6.17;3.20;;;20.20;47.70;;;;;;4985211;28;90712;-64
2022/03/17 00:12:50;;;;;;;5.77;3.10;;;20.20;47.70;;;;;;4978723;28;89190;-64
2022/03/17 00:15:18;;;;;;;5.00;2.77;;;20.20;47.70;;;;;;4978992;28;88387;-64
2022/03/17 00:17:46;;;;;;;3.80;2.97;;;20.20;47.70;;;;;;4978448;28;88751;-64
2022/03/17 00:20:14;;;;;;;3.87;2.90;;;20.20;47.70;;;;;;4978030;28;89274;-63
2022/03/17 00:22:42;;;;;;;4.33;2.70;;;20.30;47.70;;;;;;4978423;28;89052;-63
2022/03/17 00:25:11;;;;;;;3.27;2.57;;;20.30;47.70;;;;;;4979526;28;89148;-63
2022/03/17 00:27:40;;;;;;;5.47;3.30;;;20.30;47.70;;;;;;4979415;28;88466;-63
2022/03/17 00:30:09;;;;;;;3.73;2.27;;;20.20;47.60;;;;;;4978590;28;91011;-63
2022/03/17 00:32:37;;;;;;;4.30;2.60;;;20.30;47.70;;;;;;4978382;28;89081;-63
2022/03/17 00:37:52;;;;;;;4.93;2.50;;;20.20;47.60;;;;;;4979036;28;88630;-62
2022/03/17 00:40:20;;;;;;;3.93;2.57;;;20.20;47.60;;;;;;4978612;28;89804;-63
2022/03/17 00:42:49;;;;;;;5.60;3.30;;;20.20;47.60;;;;;;4977716;28;90664;-66
2022/03/17 00:45:17;;;;;;;3.57;3.03;;;20.00;47.80;;;;;;4979284;28;88290;-65
2022/03/17 00:47:45;;;;;;;3.40;2.20;;;20.30;47.70;;;;;;4977530;28;88488;-63
2022/03/17 00:50:13;;;;;;;2.83;2.53;;;20.30;47.50;;;;;;4978341;28;90213;-63
2022/03/17 00:52:41;;;;;;;5.90;2.80;;;20.30;47.40;;;;;;4978843;28;90043;-63
2022/03/17 00:55:09;;;;;;;3.63;2.67;;;20.30;47.40;;;;;;4979187;28;89176;-63
2022/03/17 00:57:39;;;;;;;5.13;2.60;;;20.30;47.40;;;;;;4978037;28;88616;-64
2022/03/17 01:00:14;;;;;;;5.20;2.60;;;20.40;47.50;;;;;;4978252;28;93368;-63
2022/03/17 01:02:42;;;;;;;3.33;2.17;;;20.30;47.50;;;;;;4978812;28;89997;-63
2022/03/17 01:05:11;;;;;;;5.70;2.67;;;20.20;47.40;;;;;;4978587;28;88569;-63
2022/03/17 01:07:39;;;;;;;5.17;2.93;;;20.20;47.70;;;;;;4978985;28;90304;-63
2022/03/17 01:10:08;;;;;;;3.60;2.47;;;20.20;47.40;;;;;;4978248;28;89577;-63
2022/03/17 01:12:36;;;;;;;3.93;2.30;;;20.20;47.50;;;;;;4977836;28;91221;-63
2022/03/17 01:15:04;;;;;;;4.67;2.40;;;20.20;47.50;;;;;;4978235;28;88458;-63
2022/03/17 01:17:34;;;;;;;4.17;2.60;;;20.20;47.50;;;;;;4978522;28;88610;-63
2022/03/17 01:20:02;;;;;;;3.50;2.60;;;20.10;47.40;;;;;;4977555;28;89465;-66
2022/03/17 01:22:30;;;;;;;3.37;2.03;;;20.10;47.30;;;;;;4978037;28;89402;-63
2022/03/17 01:24:58;;;;;;;5.80;2.93;;;20.10;47.30;;;;;;4979263;28;91126;-63
2022/03/17 01:27:26;;;;;;;4.33;2.37;;;20.10;47.30;;;;;;4978805;28;88710;-66
2022/03/17 01:29:54;;;;;;;5.70;2.63;;;20.10;47.30;;;;;;4978304;28;91593;-64
2022/03/17 01:32:22;;;;;;;4.00;2.60;;;20.10;47.40;;;;;;4978257;28;90019;-64
2022/03/17 01:34:52;;;;;;;5.10;3.10;;;20.10;47.40;;;;;;4977917;28;89052;-63
2022/03/17 01:37:20;;;;;;;5.63;3.00;;;20.10;47.40;;;;;;4978036;28;88400;-63
2022/03/17 01:39:48;;;;;;;4.20;2.87;;;20.10;47.40;;;;;;4977773;28;89785;-70
2022/03/17 01:42:16;;;;;;;4.73;2.97;;;20.10;47.40;;;;;;4977713;28;89720;-70
2022/03/17 01:44:44;;;;;;;3.23;2.47;;;20.10;47.40;;;;;;4977662;28;89301;-70
2022/03/17 01:47:28;;;;;;;3.47;2.80;;;20.20;47.50;;;;;;4975793;28;88422;-70
2022/03/17 01:49:58;;;;;;;3.67;3.17;;;20.20;47.50;;;;;;4977373;28;90735;-70
2022/03/17 01:52:26;;;;;;;4.73;2.90;;;20.30;47.50;;;;;;4977800;28;90255;-70
2022/03/17 01:54:54;;;;;;;4.13;2.53;;;20.20;47.50;;;;;;4976553;28;88569;-70
2022/03/17 01:57:22;;;;;;;4.10;2.90;;;20.20;47.50;;;;;;4974360;28;88679;-69
2022/03/17 01:59:51;;;;;;;5.50;3.10;;;20.20;47.50;;;;;;4979061;28;89599;-69
2022/03/17 02:02:19;;;;;;;6.17;3.30;;;20.20;48.10;;;;;;4979719;28;89971;-70
2022/03/17 02:04:48;;;;;;;3.70;2.07;;;20.20;47.50;;;;;;4982001;28;88623;-70
2022/03/17 02:07:17;;;;;;;3.60;2.37;;;20.20;47.80;;;;;;4980880;28;89629;-69
2022/03/17 02:09:45;;;;;;;3.40;2.40;;;20.10;47.40;;;;;;4980259;28;90162;-70
2022/03/17 02:15:00;;;;;;;4.37;2.60;;;20.10;47.40;;;;;;4981277;28;88315;-70
2022/03/17 02:17:30;;;;;;;4.63;2.50;;;20.10;47.30;;;;;;4981242;28;88453;-70
2022/03/17 02:19:59;;;;;;;3.40;2.37;;;20.10;48.00;;;;;;4981248;28;93768;-70
2022/03/17 02:22:29;;;;;;;4.27;2.37;;;20.10;47.40;;;;;;4979844;28;88932;-72
2022/03/17 02:27:46;;;;;;;2.50;2.27;;;20.10;47.40;;;;;;4974428;28;88651;-70
2022/03/17 02:30:15;;;;;;;4.20;2.57;;;20.10;47.40;;;;;;4981036;28;92127;-72
2022/03/17 02:32:43;;;;;;;2.63;2.27;;;20.10;47.40;;;;;;4980641;28;90464;-70
2022/03/17 02:35:13;;;;;;;2.57;1.83;;;20.10;47.40;;;;;;4980468;28;89752;-70
2022/03/17 02:37:41;;;;;;;3.57;2.47;;;20.00;47.40;;;;;;4980285;28;89855;-70
2022/03/17 02:40:12;;;;;;;3.70;2.60;;;20.00;47.30;;;;;;4981245;28;90560;-71
2022/03/17 02:42:40;;;;;;;3.13;2.10;;;20.00;47.40;;;;;;4979794;28;90100;-70
2022/03/17 02:45:10;;;;;;;3.37;2.20;;;20.00;47.30;;;;;;4980380;28;90567;-70
2022/03/17 02:47:38;;;;;;;3.60;2.53;;;20.00;47.30;;;;;;4980382;28;88478;-70
2022/03/17 02:50:07;;;;;;;2.93;2.20;;;20.00;47.40;;;;;;4980405;28;91099;-71
2022/03/17 02:52:35;;;;;;;3.07;2.40;;;20.00;47.40;;;;;;4980542;28;90473;-70
2022/03/17 02:55:03;;;;;;;3.73;2.37;;;20.00;47.40;;;;;;4980423;28;91130;-70
2022/03/17 02:57:32;;;;;;;2.40;2.20;;;20.00;47.40;;;;;;4971221;28;88585;-70
2022/03/17 03:00:00;;;;;;;2.57;1.97;;;20.00;47.40;;;;;;4980374;28;89637;-70
2022/03/17 03:02:30;;;;;;;4.70;2.13;;;20.00;47.40;;;;;;4980863;28;89478;-71
2022/03/17 03:04:58;;;;;;;2.57;2.00;;;20.00;47.50;;;;;;4980127;28;89870;-71
2022/03/17 03:07:26;;;;;;;2.37;1.83;;;20.00;47.30;;;;;;4980079;28;88529;-70
2022/03/17 03:09:55;;;;;;;3.10;2.03;;;20.00;47.30;;;;;;4979776;28;89414;-70
2022/03/17 03:12:23;;;;;;;3.03;2.33;;;20.10;47.40;;;;;;4979952;28;90146;-70
2022/03/17 03:14:53;;;;;;;3.07;2.00;;;20.20;47.50;;;;;;4979840;28;90255;-70
2022/03/17 03:17:22;;;;;;;2.33;1.80;;;20.10;47.40;;;;;;4980117;28;88637;-70
2022/03/17 03:19:51;;;;;;;3.53;2.17;;;20.10;47.40;;;;;;4979411;28;89597;-70
2022/03/17 03:22:18;;;;;;;2.10;1.67;;;20.10;47.30;;;;;;4979477;28;90121;-70
2022/03/17 03:24:47;;;;;;;3.10;2.00;;;20.10;47.30;;;;;;4979440;28;88541;-70
2022/03/17 03:27:15;;;;;;;2.97;1.67;;;20.10;47.30;;;;;;4980394;28;88673;-70
2022/03/17 03:29:43;;;;;;;2.43;1.60;;;20.00;47.30;;;;;;4980359;28;89374;-70
2022/03/17 03:32:12;;;;;;;2.60;1.77;;;20.00;47.20;;;;;;4979908;28;90120;-70
2022/03/17 03:34:40;;;;;;;1.60;1.50;;;20.00;47.20;;;;;;4979821;28;89228;-70
2022/03/17 03:37:23;;;;;;;2.77;1.90;;;20.00;47.20;;;;;;4980055;28;88483;-70
2022/03/17 03:39:52;;;;;;;2.33;1.70;;;20.00;47.20;;;;;;4979679;28;89700;-70
2022/03/17 03:42:20;;;;;;;2.97;1.73;;;20.00;47.20;;;;;;4979494;28;89224;-70
2022/03/17 03:44:48;;;;;;;2.83;1.93;;;20.00;47.20;;;;;;4979707;28;88470;-70
2022/03/17 03:47:17;;;;;;;2.03;1.40;;;20.00;47.20;;;;;;4979525;28;88551;-70
2022/03/17 03:49:45;;;;;;;3.93;1.57;;;20.00;47.30;;;;;;4980287;28;90393;-70
2022/03/17 03:52:14;;;;;;;1.70;1.37;;;20.00;47.30;;;;;;4979621;28;89955;-70
2022/03/17 03:54:42;;;;;;;2.47;1.97;;;20.00;47.90;;;;;;4979785;28;88363;-70
2022/03/17 03:57:10;;;;;;;2.33;1.70;;;20.00;47.20;;;;;;4979755;28;88621;-70
2022/03/17 03:59:38;;;;;;;2.37;1.60;;;20.00;47.30;;;;;;4979727;28;90571;-70
2022/03/17 04:02:07;;;;;;;2.10;1.50;;;20.00;47.30;;;;;;4979415;28;92406;-70
2022/03/17 04:04:40;;;;;;;3.73;1.60;;;19.90;47.10;;;;;;4979161;28;88662;-70
2022/03/17 04:07:10;;;;;;;1.60;1.30;;;19.90;47.10;;;;;;4979979;28;88457;-69
2022/03/17 04:09:39;;;;;;;2.33;1.63;;;20.00;47.20;;;;;;4959609;28;89510;-70
2022/03/17 04:12:08;;;;;;;1.60;1.20;;;19.90;47.10;;;;;;4966481;28;90036;-70
2022/03/17 04:14:36;;;;;;;2.20;1.40;;;19.90;47.20;;;;;;4979643;28;90909;-70
2022/03/17 04:17:05;;;;;;;1.80;1.40;;;19.90;47.10;;;;;;4979724;28;88369;-70
2022/03/17 04:19:33;;;;;;;2.27;1.37;;;19.90;47.10;;;;;;4980319;28;89290;-70
2022/03/17 04:22:03;;;;;;;1.07;0.97;;;19.90;47.10;;;;;;4978478;28;89297;-63
2022/03/17 04:24:31;;;;;;;2.40;1.13;;;19.90;47.10;;;;;;4978960;28;88457;-63
2022/03/17 04:26:59;;;;;;;1.70;1.40;;;19.90;47.10;;;;;;4979463;28;88488;-70
2022/03/17 04:29:28;;;;;;;1.63;1.50;;;19.90;47.10;;;;;;4978781;28;93743;-70
2022/03/17 04:31:56;;;;;;;2.20;1.23;;;19.90;47.10;;;;;;4979272;28;88509;-70
2022/03/17 04:34:24;;;;;;;1.63;1.27;;;19.90;47.10;;;;;;4978429;28;88834;-70
2022/03/17 04:36:52;;;;;;;1.20;0.90;;;19.90;47.10;;;;;;4972728;28;88625;-70
2022/03/17 04:39:21;;;;;;;0.80;0.80;;;19.90;47.00;;;;;;4979148;28;89411;-70
2022/03/17 04:41:50;;;;;;;1.77;1.13;;;19.90;47.00;;;;;;4978312;28;90458;-70
2022/03/17 04:44:24;;;;;;;4.20;1.40;;;19.90;47.00;;;;;;4978192;28;88405;-70
2022/03/17 04:46:55;;;;;;;1.57;1.23;;;19.90;47.00;;;;;;4979285;28;88986;-70
2022/03/17 04:49:23;;;;;;;1.13;1.03;;;19.90;47.00;;;;;;4974437;28;92644;-70
2022/03/17 04:51:51;;;;;;;0.93;0.93;;;19.90;47.00;;;;;;4958542;28;89075;-70
2022/03/17 04:54:20;;;;;;;3.67;0.90;;;19.90;47.00;;;;;;4974704;28;90881;-70
2022/03/17 04:56:48;;;;;;;1.33;0.90;;;19.90;47.00;;;;;;4979107;28;88479;-70
2022/03/17 04:59:19;;;;;;;1.87;1.00;;;19.90;46.90;;;;;;4978282;28;89669;-71
2022/03/17 05:01:47;;;;;;;1.60;1.10;;;19.90;47.00;;;;;;4972908;28;90099;-72
2022/03/17 05:04:15;;;;;;;2.90;1.10;;;19.90;47.00;;;;;;4977171;28;88728;-72
2022/03/17 05:06:43;;;;;;;1.90;0.93;;;19.90;46.90;;;;;;4979159;28;88497;-70
2022/03/17 05:09:11;;;;;;;1.90;0.90;;;19.90;46.90;;;;;;4977351;28;89585;-65
2022/03/17 05:11:40;;;;;;;2.03;0.80;;;19.90;46.90;;;;;;4978415;28;90110;-66
2022/03/17 05:14:08;;;;;;;3.13;1.27;;;19.90;47.00;;;;;;4977812;28;88665;-66
2022/03/17 05:16:37;;;;;;;3.47;1.20;;;19.90;47.00;;;;;;4979144;28;88551;-65
2022/03/17 05:19:06;;;;;;;1.53;1.23;;;19.90;47.10;;;;;;4978803;28;89424;-70
2022/03/17 05:21:34;;;;;;;3.23;1.30;;;19.90;47.10;;;;;;4979448;28;90381;-68
2022/03/17 05:24:02;;;;;;;1.83;1.07;;;19.90;47.20;;;;;;4979192;28;88422;-65
2022/03/17 05:26:29;;;;;;;2.03;1.10;;;19.90;47.20;;;;;;4979245;28;88631;-65
2022/03/17 05:28:59;;;;;;;2.17;0.77;;;20.00;47.40;;;;;;4979548;28;92473;-65
2022/03/17 05:31:27;;;;;;;2.93;1.73;;;20.00;47.40;;;;;;4979066;28;93366;-67
2022/03/17 05:33:55;;;;;;;13.43;3.43;;;20.00;47.40;;;;;;4979920;28;91333;-66
2022/03/17 05:36:25;;;;;;;22.83;5.13;;;20.10;47.60;;;;;;4982611;28;88498;-65
2022/03/17 05:38:53;;;;;;;21.80;4.60;;;20.20;47.90;;;;;;4981648;28;90699;-65
2022/03/17 05:41:22;;;;;;;13.67;4.17;;;20.10;48.00;;;;;;4981949;28;88842;-64
2022/03/17 05:43:50;;;;;;;14.63;4.07;;;20.30;48.30;;;;;;4980044;28;89911;-66
2022/03/17 05:46:20;;;;;;;11.23;3.73;;;20.30;48.40;;;;;;4982138;28;88582;-65
2022/03/17 05:48:48;;;;;;;14.13;3.90;;;20.40;48.60;;;;;;4982076;28;91094;-67
2022/03/17 05:51:17;;;;;;;9.00;3.70;;;20.40;48.70;;;;;;4982486;28;93117;-66
2022/03/17 05:53:45;;;;;;;15.67;3.73;;;20.40;48.80;;;;;;4979075;28;91340;-66
2022/03/17 05:56:13;;;;;;;12.37;3.20;;;20.30;48.80;;;;;;4982319;28;88560;-64
2022/03/17 05:58:41;;;;;;;8.73;3.43;;;20.30;48.90;;;;;;4980716;28;90726;-65
2022/03/17 06:01:12;;;;;;;9.17;2.93;;;20.30;48.90;;;;;;4980409;28;89999;-64
2022/03/17 06:03:43;;;;;;;5.30;2.33;;;20.30;48.90;;;;;;4970577;28;89404;-66
2022/03/17 06:06:11;;;;;;;5.73;2.57;;;20.30;49.20;;;;;;4979315;28;88546;-68
2022/03/17 06:08:39;;;;;;;8.60;2.23;;;20.30;48.90;;;;;;4965360;28;90584;-64
2022/03/17 06:11:08;;;;;;;11.33;2.70;;;20.30;48.90;;;;;;4999722;28;89025;-64
2022/03/17 06:13:36;;;;;;;8.43;2.47;;;20.30;48.90;;;;;;5000500;28;89646;-64
2022/03/17 06:16:05;;;;;;;9.73;2.50;;;20.30;48.90;;;;;;5000705;28;88547;-64
2022/03/17 06:18:33;;;;;;;4.17;2.13;;;20.30;48.90;;;;;;5001040;28;90361;-64
2022/03/17 06:21:03;;;;;;;6.13;2.53;;;20.30;48.90;;;;;;5001189;28;90119;-64
2022/03/17 06:23:31;;;;;;;7.10;1.63;;;20.30;48.90;;;;;;5000802;28;88524;-64
2022/03/17 06:25:59;;;;;;;9.67;1.73;;;20.20;49.40;;;;;;5000909;28;88665;-65
2022/03/17 06:28:27;;;;;;;7.43;1.87;;;20.30;48.90;;;;;;5001046;28;90659;-65
2022/03/17 06:30:56;;;;;;;5.87;1.33;;;20.20;48.70;;;;;;5001049;28;91782;-64
2022/03/17 06:33:25;;;;;;;4.17;1.80;;;20.20;48.70;;;;;;5000232;28;90055;-64
2022/03/17 06:35:53;;;;;;;7.20;1.70;;;20.20;48.70;;;;;;5001113;28;88459;-66
2022/03/17 06:38:22;;;;;;;4.63;1.30;;;20.20;48.60;;;;;;5000147;28;90718;-64
2022/03/17 06:40:50;;;;;;;3.90;1.53;;;20.20;48.60;;;;;;5001696;28;88821;-64
2022/03/17 06:43:18;;;;;;;5.33;1.60;;;20.20;48.60;;;;;;4988250;28;89239;-64
2022/03/17 06:45:46;;;;;;;3.30;1.57;;;20.20;48.60;;;;;;4999637;28;89229;-64
2022/03/17 06:48:14;;;;;;;6.20;1.37;;;20.20;48.60;;;;;;5000967;28;90055;-65
2022/03/17 06:50:42;;;;;;;3.00;1.20;;;20.20;48.50;;;;;;5000357;28;90020;-65
2022/03/17 06:53:10;;;;;;;3.77;0.93;;;20.20;48.50;;;;;;5000383;28;89524;-65
2022/03/17 06:55:40;;;;;;;2.00;0.60;;;20.20;48.50;;;;;;5000888;28;88733;-65
2022/03/17 06:58:08;;;;;;;4.10;1.50;;;20.20;48.40;;;;;;4999666;28;90090;-64
2022/03/17 07:00:36;;;;;;;1.80;1.07;;;20.20;48.40;;;;;;5000580;28;90122;-64
2022/03/17 07:03:04;;;;;;;2.30;0.93;;;20.20;48.40;;;;;;5000216;28;88909;-63
2022/03/17 07:05:32;;;;;;;4.20;1.13;;;20.20;48.30;;;;;;5000322;28;88610;-66
2022/03/17 07:08:00;;;;;;;1.07;0.77;;;20.20;48.30;;;;;;4999559;28;92317;-64
2022/03/17 07:10:33;;;;;;;2.07;1.37;;;20.20;48.30;;;;;;4989868;28;89894;-66
2022/03/17 07:13:02;;;;;;;1.43;0.87;;;20.20;48.20;;;;;;4982081;28;88981;-66
2022/03/17 07:15:30;;;;;;;3.00;0.90;;;20.20;48.20;;;;;;4980342;28;88455;-71
2022/03/17 07:17:58;;;;;;;1.33;1.00;;;20.20;48.20;;;;;;4981055;28;90626;-70
2022/03/17 07:20:27;;;;;;;4.40;1.57;;;20.20;48.20;;;;;;4980460;28;90085;-70
2022/03/17 07:22:55;;;;;;;2.00;1.10;;;20.20;48.30;;;;;;4978524;28;90130;-70
2022/03/17 07:25:24;;;;;;;1.77;0.97;;;20.20;48.40;;;;;;4980494;28;88714;-67
2022/03/17 07:27:52;;;;;;;4.43;1.03;;;20.20;48.40;;;;;;4978801;28;89520;-70
2022/03/17 07:30:22;;;;;;;1.70;0.80;;;20.20;48.40;;;;;;4993121;28;88814;-69
2022/03/17 07:32:52;;;;;;;1.17;0.80;;;20.20;48.40;;;;;;4985208;28;88616;-71
2022/03/17 07:35:20;;;;;;;1.73;0.67;;;20.20;48.40;;;;;;4980349;28;88587;-68
2022/03/17 07:37:49;;;;;;;2.10;0.70;;;20.20;48.40;;;;;;4979733;28;89349;-71
2022/03/17 07:40:19;;;;;;;4.03;0.80;;;20.20;49.10;;;;;;4979498;28;90130;-71
2022/03/17 07:42:47;;;;;;;3.20;0.70;;;20.10;48.30;;;;;;4979488;28;88982;-71
2022/03/17 07:45:15;;;;;;;1.93;0.77;;;20.10;48.40;;;;;;4979517;28;88713;-71
2022/03/17 07:47:48;;;;;;;1.07;0.60;;;20.10;48.40;;;;;;4979367;28;91519;-69
2022/03/17 07:50:17;;;;;;;1.27;0.53;;;20.10;48.40;;;;;;4979860;28;90296;-70
2022/03/17 07:52:45;;;;;;;3.43;0.63;;;20.10;48.40;;;;;;4979971;28;90353;-69
2022/03/17 07:55:13;;;;;;;2.90;0.73;;;20.10;48.40;;;;;;4979892;28;88597;-70
2022/03/17 07:57:41;;;;;;;1.37;0.60;;;20.10;48.40;;;;;;4980118;28;89347;-70
2022/03/17 08:00:11;;;;;;;0.50;0.50;;;20.10;48.40;;;;;;4978959;28;90334;-70
2022/03/17 08:02:40;;;;;;;1.97;0.73;;;20.00;48.30;;;;;;4979337;28;89942;-70
2022/03/17 08:05:10;;;;;;;2.43;0.60;;;20.00;48.30;;;;;;4980462;28;88688;-70
2022/03/17 08:07:38;;;;;;;2.10;0.90;;;20.00;48.30;;;;;;4979445;28;93063;-71
2022/03/17 08:10:08;;;;;;;3.13;0.80;;;20.00;48.30;;;;;;4986965;28;90014;-70
2022/03/17 08:12:36;;;;;;;0.73;0.50;;;20.00;48.30;;;;;;4979699;28;90184;-70
2022/03/17 08:15:05;;;;;;;2.73;0.80;;;20.00;48.20;;;;;;4980236;28;88340;-70
2022/03/17 08:17:33;;;;;;;2.50;0.80;;;20.00;48.20;;;;;;4979633;28;90092;-70
2022/03/17 08:20:02;;;;;;;1.93;0.70;;;20.00;48.10;;;;;;4980885;28;88989;-70
2022/03/17 08:22:31;;;;;;;1.50;0.50;;;20.00;48.10;;;;;;4999277;28;90475;-71
2022/03/17 08:24:59;;;;;;;2.97;1.10;;;20.10;48.10;;;;;;4999786;28;88375;-70
2022/03/17 08:27:27;;;;;;;3.07;0.73;;;20.00;48.00;;;;;;4999600;28;89339;-71
2022/03/17 08:29:55;;;;;;;1.23;0.60;;;20.00;47.90;;;;;;4997584;28;88590;-70
2022/03/17 08:32:23;;;;;;;4.13;0.63;;;20.00;47.90;;;;;;4999569;28;88434;-70
2022/03/17 08:34:51;;;;;;;1.00;0.90;;;20.00;47.90;;;;;;4999005;28;88252;-70
2022/03/17 08:37:19;;;;;;;1.23;0.50;;;20.10;47.90;;;;;;4999196;28;89367;-70
2022/03/17 08:39:49;;;;;;;0.50;0.40;;;20.10;47.90;;;;;;4998212;28;91891;-70
2022/03/17 08:42:17;;;;;;;1.53;0.97;;;20.10;47.80;;;;;;4979320;28;88471;-70
2022/03/17 08:44:45;;;;;;;2.23;0.70;;;20.10;47.80;;;;;;4979539;28;88547;-70
2022/03/17 08:49:58;;;;;;;0.53;0.50;;;20.10;47.80;;;;;;4984728;28;90480;-70
2022/03/17 08:52:27;;;;;;;3.27;0.70;;;20.10;47.70;;;;;;4999782;28;88751;-70
2022/03/17 08:54:56;;;;;;;0.50;0.20;;;20.10;47.80;;;;;;4999480;28;88443;-69
2022/03/17 08:57:25;;;;;;;0.60;0.60;;;20.10;47.70;;;;;;4999207;28;90618;-70
2022/03/17 08:59:53;;;;;;;1.00;0.40;;;20.10;47.60;;;;;;4994000;28;90001;-70
2022/03/17 09:02:23;;;;;;;2.50;0.73;;;20.10;47.60;;;;;;4979552;28;88444;-71
2022/03/17 09:04:51;;;;;;;0.50;0.40;;;20.10;47.60;;;;;;4979624;28;88487;-71
2022/03/17 09:07:19;;;;;;;3.73;0.57;;;20.10;47.50;;;;;;4979202;28;90804;-68
2022/03/17 09:09:47;;;;;;;1.23;0.87;;;20.10;47.50;;;;;;4977894;28;90130;-69
2022/03/17 09:12:18;;;;;;;0.97;0.50;;;20.10;47.50;;;;;;4978410;28;88900;-68
2022/03/17 09:14:47;;;;;;;1.10;0.57;;;20.10;47.40;;;;;;4979682;28;88447;-69
2022/03/17 09:17:15;;;;;;;2.37;0.57;;;20.00;47.30;;;;;;4979014;28;89139;-69
2022/03/17 09:19:43;;;;;;;1.27;0.63;;;20.10;47.40;;;;;;4978159;28;91303;-70
2022/03/17 09:22:12;;;;;;;1.80;0.40;;;20.10;47.30;;;;;;4978513;28;88309;-69
2022/03/17 09:24:43;;;;;;;0.80;0.57;;;20.10;47.30;;;;;;4978330;28;88137;-68
2022/03/17 09:27:11;;;;;;;1.53;0.73;;;20.10;47.30;;;;;;4978419;28;89170;-69
2022/03/17 09:29:41;;;;;;;1.90;0.50;;;20.00;47.20;;;;;;4977696;28;89170;-70
2022/03/17 09:32:09;;;;;;;1.13;0.60;;;20.10;47.30;;;;;;4978893;28;88906;-69
2022/03/17 09:34:38;;;;;;;1.23;0.20;;;20.10;47.20;;;;;;4978695;28;88635;-69
2022/03/17 09:37:05;;;;;;;2.17;0.50;;;20.10;47.20;;;;;;4978951;28;90808;-69
2022/03/17 09:39:46;;;;;;;2.47;0.60;;;20.10;47.20;;;;;;4977444;28;89064;-69
2022/03/17 09:42:15;;;;;;;0.40;0.40;;;20.10;47.20;;;;;;4979079;28;90369;-69
2022/03/17 09:44:46;;;;;;;2.80;0.60;;;20.10;47.20;;;;;;4978655;28;88629;-69
2022/03/17 09:47:15;;;;;;;0.67;0.50;;;20.10;47.20;;;;;;4978110;28;89682;-69
2022/03/17 09:49:43;;;;;;;0.40;0.23;;;20.10;47.20;;;;;;4977276;28;92806;-69
2022/03/17 09:52:13;;;;;;;1.13;0.53;;;20.10;47.20;;;;;;4978579;28;89803;-69
2022/03/17 09:54:42;;;;;;;0.40;0.33;;;20.10;47.10;;;;;;4978698;28;88544;-69
2022/03/17 09:57:09;;;;;;;1.23;0.60;;;20.10;47.10;;;;;;4977787;28;91149;-70
2022/03/17 09:59:37;;;;;;;0.40;0.40;;;20.10;47.10;;;;;;4978122;28;90472;-69
2022/03/17 10:02:07;;;;;;;0.60;0.60;;;20.10;47.00;;;;;;4978378;28;88286;-69
2022/03/17 10:04:36;;;;;;;0.90;0.70;;;20.10;47.00;;;;;;4978615;28;88690;-70
2022/03/17 10:07:04;;;;;;;0.50;0.50;;;20.10;47.00;;;;;;4978251;28;90644;-71
2022/03/17 10:09:32;;;;;;;0.77;0.47;;;20.10;47.00;;;;;;4977733;28;90487;-69
2022/03/17 10:12:01;;;;;;;1.40;0.70;;;20.10;47.00;;;;;;4978415;28;88886;-68
2022/03/17 10:14:39;;;;;;;0.80;0.60;;;20.10;46.90;;;;;;4978805;28;88434;-68
2022/03/17 10:17:10;;;;;;;0.77;0.77;;;20.10;47.00;;;;;;4977998;28;89750;-69
2022/03/17 10:19:38;;;;;;;4.93;1.47;;;20.20;46.90;;;;;;4978095;28;91481;-69
2022/03/17 10:22:07;;;;;;;1.13;0.60;;;20.10;46.90;;;;;;4980961;28;88950;-69
2022/03/17 10:24:36;;;;;;;1.80;0.80;;;20.10;46.90;;;;;;4981226;28;88657;-69
2022/03/17 10:27:04;;;;;;;1.37;1.03;;;20.10;46.90;;;;;;4980681;28;90676;-69
2022/03/17 10:29:33;;;;;;;1.43;0.90;;;20.10;46.80;;;;;;4981325;28;89482;-69
2022/03/17 10:32:06;;;;;;;2.20;1.20;;;20.10;46.80;;;;;;4981772;28;88206;-69
2022/03/17 10:34:51;;;;;;;0.90;0.80;;;20.20;46.90;;;;;;4981919;28;88543;-69
2022/03/17 10:37:19;;;;;;;4.87;1.10;;;20.10;46.70;;;;;;4980566;28;93503;-69
2022/03/17 10:39:49;;;;;;;1.27;0.80;;;20.20;46.80;;;;;;4980234;28;89181;-68
2022/03/17 10:42:18;;;;;;;4.40;1.10;;;20.20;46.80;;;;;;4980588;28;88833;-69
2022/03/17 10:44:47;;;;;;;1.10;0.93;;;20.20;46.80;;;;;;4981774;28;88620;-69
2022/03/17 10:47:15;;;;;;;1.93;1.00;;;20.20;46.70;;;;;;4979872;28;89746;-69
2022/03/17 10:52:52;;;;;;;1.17;0.83;;;20.20;46.70;;;;;;5069694;27;1528438;-69
2022/03/17 10:55:22;;;;;;;1.33;1.23;;;20.20;46.60;;;;;;5099577;27;88424;-68
2022/03/17 10:57:50;;;;;;;2.93;1.50;;;20.20;46.60;;;;;;5080041;27;88902;-71
2022/03/17 11:00:20;;;;;;;2.60;1.10;;;20.20;46.60;;;;;;5098441;27;90356;-69
2022/03/17 11:02:50;;;;;;;1.63;1.33;;;20.20;46.60;;;;;;5097987;27;88843;-69
2022/03/17 11:05:19;;;;;;;2.40;1.00;;;20.20;46.60;;;;;;5099196;27;88199;-69
2022/03/17 11:07:47;;;;;;;1.03;0.87;;;20.20;46.60;;;;;;5086452;27;88861;-69
2022/03/17 11:10:19;;;;;;;1.33;1.13;;;20.20;46.50;;;;;;5078503;27;89001;-68
2022/03/17 11:12:52;;;;;;;1.13;0.83;;;20.20;46.50;;;;;;5077636;27;89989;-70
2022/03/17 11:15:27;;;;;;;0.90;0.90;;;20.20;46.50;;;;;;5078088;27;88419;-71
2022/03/17 11:17:59;;;;;;;1.20;0.93;;;20.20;46.50;;;;;;5082065;27;88591;-71
2022/03/17 11:20:28;;;;;;;1.23;0.90;;;20.20;46.40;;;;;;5098576;27;90577;-69
2022/03/17 11:23:30;;;;;;;1.57;1.10;;;20.20;46.40;;;;;;5098768;27;88398;-68
2022/03/17 11:26:00;;;;;;;1.13;1.03;;;20.20;46.40;;;;;;5065319;27;88290;-69
2022/03/17 11:28:34;;;;;;;3.70;1.63;;;20.30;46.40;;;;;;5078096;27;88705;-69
2022/03/17 11:31:03;;;;;;;1.80;1.17;;;20.20;46.40;;;;;;5077356;27;91025;-69
2022/03/17 11:33:32;;;;;;;1.53;1.27;;;20.30;46.40;;;;;;5077577;27;89913;-71
2022/03/17 11:36:01;;;;;;;2.20;0.93;;;20.30;46.40;;;;;;5077548;27;88360;-71
2022/03/17 11:38:32;;;;;;;1.43;1.00;;;20.30;46.40;;;;;;5077494;27;88629;-71
2022/03/17 11:41:09;;;;;;;0.90;0.90;;;20.30;46.30;;;;;;5077897;27;90476;-70
2022/03/17 11:44:04;;;;;;;1.10;0.90;;;20.30;46.30;;;;;;5084968;27;88885;-71
2022/03/17 11:46:40;;;;;;;1.23;1.00;;;20.30;46.30;;;;;;5091738;27;88533;-70
2022/03/17 11:49:22;;;;;;;2.77;1.07;;;20.30;46.30;;;;;;5078135;27;88439;-70
2022/03/17 11:51:54;;;;;;;0.80;0.80;;;20.30;46.30;;;;;;5077590;27;90077;-70
2022/03/17 11:54:22;;;;;;;1.57;1.17;;;20.30;46.20;;;;;;5077055;27;88880;-69
2022/03/17 11:56:55;;;;;;;2.30;1.13;;;20.30;46.20;;;;;;5084999;27;88490;-69
2022/03/17 11:59:23;;;;;;;1.57;0.90;;;20.30;46.20;;;;;;5098302;27;88407;-68
2022/03/17 12:01:51;;;;;;;3.10;1.30;;;20.30;46.20;;;;;;5096566;27;91343;-69
2022/03/17 12:04:22;;;;;;;3.90;1.43;;;20.30;46.90;;;;;;5083630;27;88456;-69
2022/03/17 12:06:53;;;;;;;2.23;1.50;;;20.30;46.80;;;;;;5073520;27;88475;-69
2022/03/17 12:09:31;;;;;;;1.63;1.23;;;20.30;46.10;;;;;;5063837;27;88569;-69
2022/03/17 12:12:01;;;;;;;3.17;1.20;;;20.30;46.80;;;;;;5063216;27;91867;-68
2022/03/17 12:14:34;;;;;;;4.07;1.30;;;20.30;46.10;;;;;;5062808;27;88925;-70
2022/03/17 12:17:17;;;;;;;3.20;1.70;;;20.40;46.10;;;;;;5074552;27;88395;-70
2022/03/17 12:19:49;;;;;;;1.70;1.10;;;20.30;46.10;;;;;;5083679;27;88508;-70
2022/03/17 12:22:18;;;;;;;1.93;1.40;;;20.30;46.10;;;;;;5083809;27;90316;-70
2022/03/17 12:24:51;;;;;;;2.13;1.27;;;20.30;46.10;;;;;;5084026;27;90094;-70
2022/03/17 12:27:23;;;;;;;1.90;1.73;;;20.30;46.10;;;;;;5084200;27;88231;-70
2022/03/17 12:29:56;;;;;;;3.63;1.90;;;20.30;46.10;;;;;;5081431;27;88737;-71
2022/03/17 12:32:25;;;;;;;3.93;1.67;;;20.30;46.10;;;;;;5083640;27;91888;-70
2022/03/17 12:34:55;;;;;;;2.27;1.60;;;20.30;46.10;;;;;;5083720;27;89977;-70
2022/03/17 12:37:25;;;;;;;3.10;1.53;;;20.40;46.10;;;;;;5083335;27;88535;-71
2022/03/17 12:39:54;;;;;;;3.33;1.60;;;20.40;46.10;;;;;;5079474;27;88539;-70
2022/03/17 12:42:24;;;;;;;3.37;2.03;;;20.30;46.00;;;;;;5062391;27;89775;-70
2022/03/17 12:44:57;;;;;;;3.33;1.70;;;20.40;46.00;;;;;;5062928;27;89963;-70
2022/03/17 12:47:32;;;;;;;2.80;2.00;;;20.40;46.00;;;;;;5062934;27;88293;-70
2022/03/17 12:50:01;;;;;;;2.90;2.10;;;20.40;46.00;;;;;;5063126;27;88417;-71
2022/03/17 12:52:30;;;;;;;3.13;2.13;;;20.50;46.10;;;;;;5062297;27;91237;-71
2022/03/17 12:54:59;;;;;;;3.40;2.50;;;20.50;46.10;;;;;;5077681;27;88917;-71
2022/03/17 12:57:29;;;;;;;4.17;2.00;;;20.50;46.10;;;;;;5082729;27;88444;-71
2022/03/17 12:59:57;;;;;;;3.13;2.10;;;20.50;46.10;;;;;;5083736;27;88527;-70
2022/03/17 13:02:26;;;;;;;2.87;2.13;;;20.50;46.00;;;;;;5082557;27;89709;-71
2022/03/17 13:04:55;;;;;;;4.33;2.30;;;20.50;46.00;;;;;;5083236;27;90073;-70
2022/03/17 13:07:23;;;;;;;6.03;2.63;;;20.60;46.00;;;;;;5083894;27;88617;-71
2022/03/17 13:09:51;;;;;;;3.40;2.33;;;20.60;46.10;;;;;;5081093;27;88571;-70